Time;durP1;ratioP1;P1;durP2;ratioP2;P2;SDS_P1;SDS_P2;PMS_P1;PMS_P2;Temp;Humidity;BMP_temperature;BMP_pressure;BME280_temperature;BME280_humidity;BME280_pressure;Samples;Min_cycle;Max_cycle;Signal;HPM_P1;HPM_P2
2022/07/10 00:01:26;;;;;;;3.38;1.90;;;;;;;20.97;50.91;93772.50;6010621;23;20019;-93
2022/07/10 00:03:54;;;;;;;3.08;2.38;;;;;;;20.95;50.94;93778.50;6069831;23;20027;-92
2022/07/10 00:06:20;;;;;;;2.33;2.13;;;;;;;20.96;51.06;93771.00;6136161;23;20025;-92
2022/07/10 00:08:48;;;;;;;4.30;2.17;;;;;;;20.96;51.09;93766.25;6212651;23;20025;-91
2022/07/10 00:11:18;;;;;;;2.00;1.80;;;;;;;20.95;51.00;93756.53;6181455;22;20040;-93
2022/07/10 00:13:47;;;;;;;2.53;2.30;;;;;;;20.95;50.94;93764.78;6170024;23;20020;-93
2022/07/10 00:16:19;;;;;;;2.23;1.93;;;;;;;20.96;50.85;93762.78;6156632;23;20040;-94
2022/07/10 00:18:51;;;;;;;3.35;2.03;;;;;;;20.95;50.93;93761.28;6130502;23;20018;-92
2022/07/10 00:21:20;;;;;;;2.28;1.88;;;;;;;20.95;51.07;93753.78;6117444;23;20025;-93
2022/07/10 00:23:47;;;;;;;2.20;1.70;;;;;;;20.95;50.88;93761.28;6090565;23;20022;-93
2022/07/10 00:26:14;;;;;;;2.60;2.08;;;;;;;20.95;51.10;93759.28;6059004;23;20536;-91
2022/07/10 00:28:45;;;;;;;2.17;1.90;;;;;;;20.96;51.06;93760.03;6058469;23;20101;-93
2022/07/10 00:31:20;;;;;;;3.45;1.90;;;;;;;20.95;50.84;93762.03;6085125;23;20018;-93
2022/07/10 00:34:16;;;;;;;2.22;2.03;;;;;;;20.96;51.13;93754.53;6097666;23;20019;-93
2022/07/10 00:36:44;;;;;;;2.60;2.17;;;;;;;20.96;50.97;93749.78;6020070;23;20074;-93
2022/07/10 00:39:11;;;;;;;2.85;2.00;;;;;;;20.96;50.85;93747.03;6043150;23;20075;-95
2022/07/10 00:41:39;;;;;;;2.17;1.98;;;;;;;20.95;51.10;93745.53;6047752;23;20019;-93
2022/07/10 00:44:05;;;;;;;2.08;1.90;;;;;;;20.95;51.07;93744.78;6044396;23;20119;-92
2022/07/10 00:46:32;;;;;;;3.75;2.25;;;;;;;20.94;50.94;93744.03;6034304;23;20023;-92
2022/07/10 00:49:11;;;;;;;2.38;2.17;;;;;;;20.95;51.08;93744.78;5991680;23;20551;-92
2022/07/10 00:51:37;;;;;;;2.10;1.83;;;;;;;20.95;50.87;93742.78;6022428;23;20472;-92
2022/07/10 00:54:09;;;;;;;2.55;1.85;;;;;;;20.95;51.16;93745.53;6012762;23;20022;-92
2022/07/10 00:56:51;;;;;;;2.17;1.90;;;;;;;20.95;50.88;93744.78;5989275;23;20016;-93
2022/07/10 00:59:28;;;;;;;2.17;1.98;;;;;;;20.94;51.10;93744.03;6023942;23;20087;-92
2022/07/10 01:02:15;;;;;;;1.83;1.73;;;;;;;20.93;50.87;93728.81;6028539;23;20026;-93
2022/07/10 01:04:44;;;;;;;2.63;2.13;;;;;;;20.94;51.08;93735.06;6023459;23;20022;-93
2022/07/10 01:07:11;;;;;;;1.88;1.63;;;;;;;20.92;51.06;93732.09;6063168;22;20116;-94
2022/07/10 01:09:53;;;;;;;2.20;1.77;;;;;;;20.93;50.98;93739.81;6126824;23;20027;-91
2022/07/10 01:12:18;;;;;;;;;;;;;;;20.97;50.93;93736.78;6130674;23;20017;-94
2022/07/10 01:14:51;;;;;;;1.90;1.73;;;;;;;20.94;50.82;93732.31;6142257;23;19939;-92
2022/07/10 01:17:19;;;;;;;1.70;1.60;;;;;;;20.94;50.93;93726.81;6094399;23;20018;-93
2022/07/10 01:19:52;;;;;;;2.10;1.90;;;;;;;20.94;50.99;93724.06;6010767;23;20019;-93
2022/07/10 01:22:21;;;;;;;2.10;1.77;;;;;;;20.92;50.88;93724.59;6027481;23;20087;-93
2022/07/10 01:24:49;;;;;;;2.15;1.85;;;;;;;20.92;51.25;93724.59;5980931;23;20019;-93
2022/07/10 01:27:15;;;;;;;2.10;1.90;;;;;;;20.92;50.86;93727.34;6022501;23;20026;-92
2022/07/10 01:29:43;;;;;;;1.73;1.60;;;;;;;20.94;51.06;93724.06;6011186;23;20209;-92
2022/07/10 01:32:11;;;;;;;2.25;2.05;;;;;;;20.92;50.77;93712.84;5999220;23;20011;-92
2022/07/10 01:34:41;;;;;;;2.67;1.90;;;;;;;20.91;51.00;93695.63;6019038;23;20020;-92
2022/07/10 01:37:09;;;;;;;3.20;1.80;;;;;;;20.94;50.92;93704.84;5997510;23;20047;-92
2022/07/10 01:39:34;;;;;;;2.03;1.40;;;;;;;20.92;50.86;93690.88;5978546;23;20058;-92
2022/07/10 01:42:09;;;;;;;2.22;1.98;;;;;;;20.93;51.06;93690.34;5925260;23;20024;-91
2022/07/10 01:44:37;;;;;;;2.50;1.90;;;;;;;20.92;51.08;93688.84;5986719;23;20020;-92
2022/07/10 01:47:04;;;;;;;2.00;1.63;;;;;;;20.93;51.17;93686.84;5960467;23;20079;-92
2022/07/10 01:49:34;;;;;;;1.95;1.75;;;;;;;20.92;50.92;93697.09;6003958;23;20020;-94
2022/07/10 01:52:01;;;;;;;2.92;2.13;;;;;;;20.91;51.02;93692.88;6044432;23;20038;-91
2022/07/10 01:54:33;;;;;;;3.67;1.92;;;;;;;20.92;50.92;93694.34;6044023;23;20015;-92
2022/07/10 01:57:00;;;;;;;2.00;1.55;;;;;;;20.93;50.81;93692.34;6109434;23;20071;-93
2022/07/10 01:59:34;;;;;;;2.25;2.05;;;;;;;20.91;50.99;93683.88;6127997;23;20415;-92
2022/07/10 02:02:00;;;;;;;1.92;1.70;;;;;;;20.92;50.93;93674.38;6156810;23;20110;-92
2022/07/10 02:04:43;;;;;;;2.58;1.85;;;;;;;20.90;51.04;93674.91;6145166;23;20031;-93
2022/07/10 02:07:25;;;;;;;2.28;1.80;;;;;;;20.91;51.00;93672.88;6128285;23;20021;-92
2022/07/10 02:12:23;;;;;;;1.80;1.67;;;;;;;20.90;51.12;93661.16;6229975;22;20481;-93
2022/07/10 02:14:51;;;;;;;3.63;1.92;;;;;;;20.91;50.90;93673.63;6156819;23;20064;-92
2022/07/10 02:17:17;;;;;;;2.00;1.67;;;;;;;20.91;51.12;93673.63;6228318;23;20020;-92
2022/07/10 02:19:45;;;;;;;1.95;1.50;;;;;;;20.91;51.21;93672.88;6199771;23;20033;-92
2022/07/10 02:22:10;;;;;;;1.75;1.60;;;;;;;20.92;51.02;93671.63;6187416;23;20028;-92
2022/07/10 02:24:40;;;;;;;3.42;1.90;;;;;;;20.92;51.12;93672.38;6175588;23;20020;-93
2022/07/10 02:27:08;;;;;;;1.73;1.63;;;;;;;20.91;51.21;93673.63;6140672;23;20443;-93
2022/07/10 02:29:34;;;;;;;2.03;1.63;;;;;;;20.92;50.96;93674.38;6130473;23;20016;-92
2022/07/10 02:32:01;;;;;;;2.42;1.85;;;;;;;20.91;50.88;93672.88;6133204;23;20033;-94
2022/07/10 02:34:29;;;;;;;1.48;1.38;;;;;;;20.92;51.21;93680.63;6105806;23;20090;-93
2022/07/10 02:37:19;;;;;;;1.80;1.70;;;;;;;20.92;51.00;93686.09;6099789;23;20116;-92
2022/07/10 02:39:46;;;;;;;1.52;1.42;;;;;;;20.91;50.97;93676.38;6112782;23;20022;-92
2022/07/10 02:42:15;;;;;;;2.03;1.60;;;;;;;20.90;50.99;93665.91;6147638;23;20049;-93
2022/07/10 02:44:44;;;;;;;2.47;1.60;;;;;;;20.90;51.07;93666.66;6119203;23;20022;-92
2022/07/10 02:47:19;;;;;;;1.98;1.60;;;;;;;20.88;50.98;93672.66;6109145;23;20018;-93
2022/07/10 02:49:45;;;;;;;1.40;1.30;;;;;;;20.92;50.96;93668.88;6071030;23;20105;-93
2022/07/10 02:52:10;;;;;;;2.60;1.50;;;;;;;20.91;51.15;93672.88;6107481;23;20049;-93
2022/07/10 02:54:39;;;;;;;1.77;1.55;;;;;;;20.91;50.99;93667.38;6049809;23;20015;-92
2022/07/10 02:57:06;;;;;;;1.73;1.50;;;;;;;20.87;51.54;93671.19;6106968;23;20018;-91
2022/07/10 02:59:36;;;;;;;1.73;1.60;;;;;;;20.90;51.19;93663.91;6072151;23;20015;-91
2022/07/10 03:02:03;;;;;;;1.48;1.15;;;;;;;20.89;51.08;93656.91;6066985;23;20081;-93
2022/07/10 03:04:33;;;;;;;1.50;1.40;;;;;;;20.88;51.09;93655.44;6073472;23;20038;-92
2022/07/10 03:07:12;;;;;;;1.83;1.60;;;;;;;20.89;51.13;93648.69;6048841;23;20137;-92
2022/07/10 03:09:39;;;;;;;1.70;1.50;;;;;;;20.90;51.08;93655.66;6176418;23;20016;-93
2022/07/10 03:12:08;;;;;;;1.95;1.42;;;;;;;20.90;51.22;93650.16;6195283;23;20032;-92
2022/07/10 03:14:41;;;;;;;2.15;1.95;;;;;;;20.90;51.06;93647.41;6147660;23;20017;-92
2022/07/10 03:17:13;;;;;;;2.88;1.70;;;;;;;20.90;50.61;93644.66;6184041;23;20031;-93
2022/07/10 03:19:44;;;;;;;1.67;1.48;;;;;;;20.90;51.06;93650.16;6147081;23;20016;-93
2022/07/10 03:22:11;;;;;;;3.38;1.73;;;;;;;20.90;51.13;93646.66;6154264;23;20024;-93
2022/07/10 03:24:46;;;;;;;1.63;1.50;;;;;;;20.90;51.03;93652.16;6169515;23;20017;-92
2022/07/10 03:27:26;;;;;;;1.40;1.30;;;;;;;20.90;51.12;93660.41;6226434;23;20096;-93
2022/07/10 03:29:52;;;;;;;1.65;1.38;;;;;;;20.88;51.10;93658.19;6195233;23;20075;-92
2022/07/10 03:32:19;;;;;;;1.50;1.40;;;;;;;20.88;51.23;93655.44;6137385;23;20025;-92
2022/07/10 03:34:52;;;;;;;3.13;1.42;;;;;;;20.88;51.03;93664.41;6132791;23;20014;-93
2022/07/10 03:37:27;;;;;;;1.67;1.55;;;;;;;20.90;51.13;93649.41;6031094;23;20014;-94
2022/07/10 03:39:53;;;;;;;1.60;1.50;;;;;;;20.89;51.07;93645.94;6166733;23;20021;-92
2022/07/10 03:42:21;;;;;;;1.40;1.30;;;;;;;20.89;51.10;93654.16;6121565;23;20027;-92
2022/07/10 03:45:00;;;;;;;1.50;1.40;;;;;;;20.90;51.21;93660.41;6135033;23;20072;-93
2022/07/10 03:47:37;;;;;;;2.67;1.27;;;;;;;20.90;51.03;93657.66;6141589;23;20017;-93
2022/07/10 03:50:09;;;;;;;1.88;1.48;;;;;;;20.88;51.05;93664.41;6147003;23;20105;-94
2022/07/10 03:52:35;;;;;;;2.13;1.60;;;;;;;20.88;51.05;93655.44;6113435;23;20057;-93
2022/07/10 03:55:03;;;;;;;2.10;1.58;;;;;;;20.90;50.91;93663.16;6074800;23;20016;-93
2022/07/10 03:57:59;;;;;;;2.05;1.48;;;;;;;20.88;51.17;93660.94;6051592;23;20027;-92
2022/07/10 04:00:32;;;;;;;1.42;1.30;;;;;;;20.89;51.02;93659.66;6079036;23;20017;-93
2022/07/10 04:03:02;;;;;;;1.70;1.60;;;;;;;20.88;51.05;93652.69;6076595;23;20026;-93
2022/07/10 04:05:37;;;;;;;1.58;1.40;;;;;;;20.87;51.10;93654.69;5957450;23;20056;-92
2022/07/10 04:08:12;;;;;;;1.75;1.30;;;;;;;20.87;51.20;93649.19;5988131;23;20032;-94
2022/07/10 04:10:41;;;;;;;1.50;1.40;;;;;;;20.87;51.25;93651.19;5972147;23;20023;-93
2022/07/10 04:13:09;;;;;;;1.77;1.67;;;;;;;20.88;51.15;93650.69;5994796;23;20150;-93
2022/07/10 04:15:34;;;;;;;2.38;1.70;;;;;;;20.89;51.01;93640.44;5995144;23;20020;-92
2022/07/10 04:18:00;;;;;;;1.67;1.50;;;;;;;20.88;51.10;93656.19;5961956;23;20055;-92
2022/07/10 04:20:30;;;;;;;2.67;1.70;;;;;;;20.87;51.08;93649.19;5905789;24;20029;-92
2022/07/10 04:23:06;;;;;;;2.28;1.52;;;;;;;20.88;51.08;93649.94;5931389;24;20017;-93
2022/07/10 04:25:36;;;;;;;1.40;1.27;;;;;;;20.89;51.14;93656.91;5918836;24;20028;-93
2022/07/10 04:28:04;;;;;;;1.43;1.33;;;;;;;20.89;51.23;93654.16;5911923;24;20032;-93
2022/07/10 04:30:33;;;;;;;1.67;1.30;;;;;;;20.88;51.21;93647.94;5896149;24;20244;-92
2022/07/10 04:33:14;;;;;;;1.75;1.48;;;;;;;20.90;51.08;93646.66;5995085;23;20036;-91
2022/07/10 04:35:44;;;;;;;1.40;1.30;;;;;;;20.89;50.84;93648.69;6002915;23;20478;-92
2022/07/10 04:38:22;;;;;;;1.50;1.25;;;;;;;20.90;51.09;93646.66;6060077;23;20022;-94
2022/07/10 04:40:50;;;;;;;1.15;1.05;;;;;;;20.90;51.21;93647.41;6115144;23;20717;-93
2022/07/10 04:43:19;;;;;;;1.42;1.33;;;;;;;20.88;50.98;93647.19;6162092;23;20021;-92
2022/07/10 04:45:50;;;;;;;;;;;;;;;20.92;51.13;93649.66;6142897;23;20031;-92
2022/07/10 04:48:17;;;;;;;1.50;1.40;;;;;;;20.88;51.17;93634.19;6124778;23;19920;-92
2022/07/10 04:50:47;;;;;;;1.40;1.30;;;;;;;20.88;51.15;93650.69;6120747;23;20028;-92
2022/07/10 04:53:17;;;;;;;1.77;1.60;;;;;;;20.89;51.35;93637.69;6127920;23;20051;-92
2022/07/10 04:55:47;;;;;;;1.33;1.23;;;;;;;20.88;51.18;93642.44;6104737;23;20013;-94
2022/07/10 04:58:13;;;;;;;2.05;1.60;;;;;;;20.87;51.11;93640.94;6103582;23;20022;-93
2022/07/10 05:00:39;;;;;;;1.80;1.42;;;;;;;20.88;51.11;93647.19;6140113;23;20052;-93
2022/07/10 05:03:19;;;;;;;2.15;1.67;;;;;;;20.88;51.10;93642.44;6162676;23;20030;-92
2022/07/10 05:05:53;;;;;;;1.55;1.45;;;;;;;20.88;51.09;93642.44;6103172;23;20017;-92
2022/07/10 05:08:21;;;;;;;1.75;1.45;;;;;;;20.88;51.03;93642.44;6046420;23;20097;-92
2022/07/10 05:13:15;;;;;;;1.35;1.25;;;;;;;20.91;50.91;93648.16;6217431;22;20024;-92
2022/07/10 05:15:41;;;;;;;1.70;1.40;;;;;;;20.88;51.03;93645.19;6155713;23;20021;-93
2022/07/10 05:18:08;;;;;;;1.55;1.40;;;;;;;20.90;51.00;93647.41;6179427;23;20020;-92
2022/07/10 05:20:41;;;;;;;1.67;1.38;;;;;;;20.89;51.11;93648.69;6195851;23;20023;-93
2022/07/10 05:23:08;;;;;;;1.50;1.40;;;;;;;20.87;51.05;93646.44;6099367;23;20037;-94
2022/07/10 05:25:37;;;;;;;1.30;1.20;;;;;;;20.91;51.17;93650.91;6047628;23;20025;-93
2022/07/10 05:28:07;;;;;;;1.50;1.27;;;;;;;20.91;51.09;93646.16;6023942;23;20463;-92
2022/07/10 05:30:36;;;;;;;1.38;1.27;;;;;;;20.91;50.92;93651.66;6028307;23;20022;-93
2022/07/10 05:33:02;;;;;;;1.58;1.27;;;;;;;20.90;51.23;93658.41;6072675;23;20019;-93
2022/07/10 05:35:32;;;;;;;1.20;1.02;;;;;;;20.91;50.97;93648.16;6014833;23;20019;-93
2022/07/10 05:37:59;;;;;;;1.60;1.50;;;;;;;20.91;50.99;93654.41;6013281;23;20027;-92
2022/07/10 05:40:27;;;;;;;1.33;1.23;;;;;;;20.91;51.03;93656.41;6177526;23;20085;-92
2022/07/10 05:42:58;;;;;;;1.23;1.13;;;;;;;20.92;51.22;93646.91;6161504;23;20048;-92
2022/07/10 05:45:23;;;;;;;;;;;;;;;20.94;50.90;93647.88;6205124;23;20033;-92
2022/07/10 05:47:50;;;;;;;1.48;1.33;;;;;;;20.93;50.68;93651.88;6125509;23;20157;-92
2022/07/10 05:50:18;;;;;;;1.70;1.42;;;;;;;20.91;51.06;93643.41;6130400;23;20032;-92
2022/07/10 05:52:56;;;;;;;1.73;1.30;;;;;;;20.92;50.95;93653.13;6163466;23;20104;-92
2022/07/10 05:55:23;;;;;;;1.80;1.50;;;;;;;20.94;51.11;93655.34;6194201;23;20032;-91
2022/07/10 05:57:51;;;;;;;1.45;1.20;;;;;;;20.94;50.88;93655.34;6184765;23;20021;-92
2022/07/10 06:00:22;;;;;;;1.77;1.23;;;;;;;20.94;51.06;93656.09;6149651;23;20018;-93
2022/07/10 06:02:48;;;;;;;1.52;1.13;;;;;;;20.93;51.09;93664.88;6088635;23;20018;-93
2022/07/10 06:05:16;;;;;;;1.52;1.42;;;;;;;20.92;51.12;93666.88;6094164;23;20119;-93
2022/07/10 06:08:08;;;;;;;1.60;1.50;;;;;;;20.92;51.04;93658.63;6116991;23;20345;-92
2022/07/10 06:10:40;;;;;;;1.75;1.35;;;;;;;20.94;50.97;93667.09;6015824;23;20031;-92
2022/07/10 06:13:08;;;;;;;2.38;1.30;;;;;;;20.94;50.94;93656.09;5948494;23;20079;-92
2022/07/10 06:16:01;;;;;;;1.33;1.23;;;;;;;20.93;50.94;93654.63;5970020;23;20021;-92
2022/07/10 06:18:30;;;;;;;1.40;1.30;;;;;;;20.94;50.88;93663.59;5956652;23;20032;-92
2022/07/10 06:20:57;;;;;;;1.37;1.23;;;;;;;20.93;50.94;93654.63;5918827;23;2536736;-94
2022/07/10 06:23:25;;;;;;;1.90;1.60;;;;;;;20.92;51.08;93652.38;6102139;23;20074;-92
2022/07/10 06:25:52;;;;;;;2.00;1.23;;;;;;;20.94;50.81;93645.13;6042296;23;20023;-94
2022/07/10 06:28:21;;;;;;;1.45;1.30;;;;;;;20.93;50.98;93657.38;6020586;23;20101;-93
2022/07/10 06:30:51;;;;;;;1.42;1.33;;;;;;;20.93;50.91;93651.88;6059301;23;20026;-92
2022/07/10 06:33:20;;;;;;;1.47;1.33;;;;;;;20.94;51.06;93655.34;6035023;23;20438;-93
2022/07/10 06:38:10;;;;;;;1.60;1.33;;;;;;;20.93;50.79;93660.13;6220116;23;20040;-93
2022/07/10 06:40:37;;;;;;;1.67;1.48;;;;;;;20.94;50.87;93658.84;6152246;23;20413;-92
2022/07/10 06:43:04;;;;;;;1.33;1.23;;;;;;;20.95;50.87;93660.34;6139154;23;20016;-92
2022/07/10 06:45:40;;;;;;;2.00;1.42;;;;;;;20.94;50.93;93667.09;6093839;23;20038;-92
2022/07/10 06:48:08;;;;;;;1.13;1.00;;;;;;;20.94;50.85;93669.84;6080953;23;20057;-92
2022/07/10 06:50:34;;;;;;;0.90;0.90;;;;;;;20.96;50.91;93666.56;6053807;23;20757;-93
2022/07/10 06:53:02;;;;;;;1.13;1.00;;;;;;;20.96;50.87;93670.06;6048805;23;20046;-93
2022/07/10 06:55:37;;;;;;;1.48;1.23;;;;;;;20.95;50.83;93665.84;6020121;23;20043;-93
2022/07/10 06:58:08;;;;;;;1.73;1.20;;;;;;;20.96;50.94;93672.81;6048522;23;20029;-93
2022/07/10 07:00:46;;;;;;;1.13;1.02;;;;;;;20.95;50.94;93667.84;6012485;23;20079;-93
2022/07/10 07:03:12;;;;;;;1.83;1.65;;;;;;;20.95;50.91;93671.34;5934887;23;20016;-93
2022/07/10 07:05:39;;;;;;;1.00;0.90;;;;;;;20.95;50.92;93670.59;5977823;23;20020;-94
2022/07/10 07:08:06;;;;;;;1.35;1.20;;;;;;;20.96;51.05;93669.31;5933004;23;20060;-92
2022/07/10 07:10:35;;;;;;;1.20;1.10;;;;;;;20.96;50.92;93674.81;5976385;24;20080;-91
2022/07/10 07:13:09;;;;;;;1.30;1.10;;;;;;;20.96;50.97;93669.31;5920833;24;20028;-93
2022/07/10 07:16:09;;;;;;;1.30;1.20;;;;;;;20.97;50.90;93666.06;5950268;24;20027;-93
2022/07/10 07:18:52;;;;;;;1.55;1.38;;;;;;;20.98;50.82;93656.56;5929413;24;20051;-94
2022/07/10 07:24:07;;;;;;;1.30;1.20;;;;;;;20.97;50.88;93662.56;5942522;24;20046;-92
2022/07/10 07:26:37;;;;;;;1.30;1.20;;;;;;;20.99;50.89;93654.53;5975353;23;20052;-92
2022/07/10 07:29:05;;;;;;;1.73;1.15;;;;;;;20.98;50.89;93648.31;5992019;23;20028;-92
2022/07/10 07:31:43;;;;;;;1.40;1.15;;;;;;;20.98;50.75;93656.56;5993110;23;20027;-92
2022/07/10 07:34:10;;;;;;;0.80;0.80;;;;;;;20.99;50.70;93660.78;5973367;23;20076;-92
2022/07/10 07:36:38;;;;;;;1.30;1.20;;;;;;;21.00;50.78;93661.53;5950215;23;20059;-92
2022/07/10 07:39:10;;;;;;;1.20;1.10;;;;;;;20.99;50.73;93649.78;5976372;23;20019;-92
2022/07/10 07:41:40;;;;;;;1.35;1.15;;;;;;;20.99;50.89;93651.78;6002076;23;20611;-94
2022/07/10 07:44:13;;;;;;;0.82;0.82;;;;;;;20.99;50.80;93660.03;6040694;23;20031;-92
2022/07/10 07:46:40;;;;;;;0.85;0.82;;;;;;;20.98;50.70;93642.81;6017776;23;20028;-94
2022/07/10 07:49:11;;;;;;;1.02;1.00;;;;;;;21.00;50.69;93650.53;6000286;23;20031;-92
2022/07/10 07:51:38;;;;;;;;;;;;;;;21.01;50.77;93646.50;5991943;23;20016;-93
2022/07/10 07:54:12;;;;;;;2.08;1.50;;;;;;;20.98;50.69;93655.81;5952933;23;19925;-93
2022/07/10 07:56:40;;;;;;;1.45;1.20;;;;;;;20.99;50.82;93647.03;5972036;23;20485;-93
2022/07/10 07:59:07;;;;;;;1.20;1.10;;;;;;;20.98;50.78;93644.81;5934905;24;20024;-94
2022/07/10 08:01:41;;;;;;;1.67;1.40;;;;;;;20.98;50.76;93658.56;5929031;24;20021;-94
2022/07/10 08:04:09;;;;;;;1.40;1.15;;;;;;;20.98;50.88;93653.06;5915054;24;20390;-93
2022/07/10 08:06:43;;;;;;;0.93;0.93;;;;;;;20.98;50.84;93659.31;5916127;24;20044;-92
2022/07/10 08:09:19;;;;;;;1.75;1.17;;;;;;;20.96;50.74;93656.31;5896619;24;20086;-92
2022/07/10 08:11:44;;;;;;;1.30;1.05;;;;;;;20.98;50.88;93666.81;5881933;24;20022;-93
2022/07/10 08:14:14;;;;;;;1.98;1.10;;;;;;;20.98;50.77;93664.78;5819075;24;20087;-93
2022/07/10 08:16:42;;;;;;;1.83;1.33;;;;;;;20.99;50.95;93673.78;5820162;24;20033;-93
2022/07/10 08:19:08;;;;;;;1.25;1.10;;;;;;;20.97;50.76;93660.56;5789716;24;20099;-93
2022/07/10 08:22:01;;;;;;;1.38;1.27;;;;;;;20.97;50.82;93668.81;5823935;24;20023;-93
2022/07/10 08:24:32;;;;;;;2.10;1.27;;;;;;;20.98;50.79;93670.28;5756828;24;20104;-94
2022/07/10 08:27:02;;;;;;;0.98;0.90;;;;;;;20.97;50.76;93663.31;5768193;24;20051;-92
2022/07/10 08:29:32;;;;;;;2.17;1.30;;;;;;;20.97;50.68;93668.81;5773449;24;20036;-94
2022/07/10 08:31:59;;;;;;;1.40;1.30;;;;;;;20.97;50.78;93654.31;6111072;23;20029;-93
2022/07/10 08:34:32;;;;;;;1.23;1.08;;;;;;;20.96;50.77;93650.84;6157953;23;20021;-93
2022/07/10 08:37:12;;;;;;;1.23;1.10;;;;;;;20.98;50.76;93664.06;6148315;23;20021;-92
2022/07/10 08:39:44;;;;;;;1.27;1.17;;;;;;;20.97;50.89;93682.56;6174861;23;20018;-92
2022/07/10 08:42:10;;;;;;;1.48;1.20;;;;;;;20.97;50.84;93681.81;6122905;23;20236;-94
2022/07/10 08:44:37;;;;;;;1.38;1.27;;;;;;;20.98;50.84;93675.03;6169227;23;20092;-93
2022/07/10 08:47:04;;;;;;;1.23;1.13;;;;;;;20.97;50.86;93668.81;6168780;23;20016;-92
2022/07/10 08:49:31;;;;;;;0.98;0.98;;;;;;;20.96;50.73;93669.31;6165093;23;20021;-93
2022/07/10 08:52:13;;;;;;;1.02;0.93;;;;;;;20.95;50.80;93662.34;6132145;23;20021;-93
2022/07/10 08:54:41;;;;;;;1.27;1.08;;;;;;;20.99;50.94;93668.28;6043277;23;20045;-93
2022/07/10 08:57:11;;;;;;;2.45;1.20;;;;;;;21.00;50.85;93650.53;6009373;23;20020;-92
2022/07/10 08:59:41;;;;;;;1.67;1.42;;;;;;;21.01;50.82;93662.97;5983271;24;20051;-94
2022/07/10 09:02:09;;;;;;;1.10;0.90;;;;;;;20.99;50.58;93668.28;5958920;24;20025;-93
2022/07/10 09:04:38;;;;;;;1.05;0.95;;;;;;;21.05;50.56;93655.94;5923743;24;20614;-91
2022/07/10 09:07:05;;;;;;;2.28;1.13;;;;;;;21.03;50.70;93668.72;5904740;24;20025;-93
2022/07/10 09:09:37;;;;;;;3.08;1.00;;;;;;;21.00;50.78;93689.00;5907020;24;20020;-90
2022/07/10 09:12:04;;;;;;;1.25;0.98;;;;;;;20.99;50.86;93679.28;5930459;24;20027;-91
2022/07/10 09:14:32;;;;;;;2.85;1.15;;;;;;;21.04;50.66;93676.44;5930689;24;20021;-91
2022/07/10 09:16:59;;;;;;;2.58;1.17;;;;;;;21.00;50.74;93665.00;5908575;24;20141;-92
2022/07/10 09:19:36;;;;;;;2.92;1.27;;;;;;;21.01;50.69;93662.97;5847715;24;20038;-93
2022/07/10 09:22:05;;;;;;;1.83;1.23;;;;;;;21.02;50.74;93662.47;5806058;24;20026;-92
2022/07/10 09:24:45;;;;;;;7.47;1.60;;;;;;;21.02;50.67;93654.22;5829557;24;20026;-92
2022/07/10 09:27:14;;;;;;;1.27;1.15;;;;;;;21.01;50.71;93663.72;5876091;24;20096;-92
2022/07/10 09:29:59;;;;;;;1.27;1.10;;;;;;;21.02;50.63;93662.47;5895852;24;20081;-93
2022/07/10 09:32:27;;;;;;;1.63;1.27;;;;;;;21.03;50.67;93665.97;5807724;24;20537;-91
2022/07/10 09:38:02;;;;;;;1.48;1.20;;;;;;;21.04;50.59;93668.19;5846881;24;20019;-93
2022/07/10 09:40:38;;;;;;;1.52;1.23;;;;;;;21.07;50.55;93658.16;5904501;24;20055;-93
2022/07/10 09:43:42;;;;;;;1.40;1.20;;;;;;;21.06;50.58;93659.41;5818421;24;20054;-93
2022/07/10 09:46:09;;;;;;;1.55;1.30;;;;;;;21.08;50.45;93662.38;5894510;24;20030;-94
2022/07/10 09:48:41;;;;;;;1.67;1.30;;;;;;;21.05;50.67;93669.66;5936482;24;20021;-92
2022/07/10 09:51:14;;;;;;;1.13;1.02;;;;;;;21.07;50.53;93658.16;6050041;23;20037;-93
2022/07/10 09:53:42;;;;;;;1.45;1.33;;;;;;;21.07;50.49;93666.41;6106900;23;20580;-94
2022/07/10 09:56:11;;;;;;;1.48;1.15;;;;;;;21.05;50.46;93675.16;6120865;23;20022;-93
2022/07/10 09:59:00;;;;;;;1.50;1.35;;;;;;;21.07;50.52;93663.66;6080074;23;20017;-94
2022/07/10 10:01:30;;;;;;;1.90;1.40;;;;;;;21.07;50.61;93655.41;6142488;22;20009;-92
2022/07/10 10:03:58;;;;;;;4.75;2.03;;;;;;;21.09;50.45;93658.38;6220500;22;20028;-93
2022/07/10 10:06:25;;;;;;;4.00;1.50;;;;;;;21.06;50.50;93656.66;6112787;23;19997;-95
2022/07/10 10:08:58;;;;;;;2.38;1.30;;;;;;;21.08;50.36;93648.66;6176419;23;20025;-93
2022/07/10 10:11:51;;;;;;;1.30;1.20;;;;;;;21.08;50.47;93651.41;6185875;23;20005;-91
2022/07/10 10:14:22;;;;;;;3.33;1.67;;;;;;;21.08;50.25;93648.66;6090304;22;20020;-92
2022/07/10 10:17:33;;;;;;;2.25;1.40;;;;;;;21.08;50.44;93654.88;6183050;23;20005;-91
2022/07/10 10:22:55;;;;;;;3.63;1.60;;;;;;;21.10;50.53;93666.09;6223111;22;20050;-93
2022/07/10 10:25:39;;;;;;;5.68;1.65;;;;;;;21.10;50.53;93655.09;6235106;23;20021;-92
2022/07/10 10:28:26;;;;;;;3.00;1.50;;;;;;;21.12;50.43;93660.09;6233803;22;20064;-95
2022/07/10 10:31:16;;;;;;;1.90;1.40;;;;;;;21.11;50.36;93651.09;6189219;23;20028;-92
2022/07/10 10:33:51;;;;;;;1.67;1.30;;;;;;;21.11;50.59;93658.59;6113972;22;20017;-94
2022/07/10 10:36:43;;;;;;;1.95;1.70;;;;;;;21.12;50.45;93658.09;6221013;22;20016;-92
2022/07/10 10:39:21;;;;;;;2.35;1.50;;;;;;;21.14;50.41;93646.56;6095094;23;20037;-93
2022/07/10 10:42:08;;;;;;;1.70;1.40;;;;;;;21.13;50.33;93658.81;6096945;23;20050;-91
2022/07/10 10:44:37;;;;;;;1.95;1.60;;;;;;;21.14;50.18;93666.56;5990505;23;20018;-92
2022/07/10 10:47:09;;;;;;;6.07;1.52;;;;;;;21.15;50.37;93670.03;6090873;23;20464;-91
2022/07/10 10:49:52;;;;;;;1.92;1.60;;;;;;;21.13;50.50;93667.81;6104011;23;20021;-91
2022/07/10 10:52:24;;;;;;;1.48;1.23;;;;;;;21.16;50.31;93660.53;6076040;23;20016;-91
2022/07/10 10:55:07;;;;;;;1.90;1.23;;;;;;;21.18;50.23;93669.00;6164390;23;20017;-91
2022/07/10 10:57:55;;;;;;;1.63;1.38;;;;;;;21.16;50.24;93657.78;6152221;22;20020;-91
2022/07/10 11:00:37;;;;;;;1.65;1.30;;;;;;;21.17;50.34;93659.28;6133015;23;20031;-91
2022/07/10 11:03:19;;;;;;;3.08;1.23;;;;;;;21.16;50.34;93650.28;6157735;22;20012;-92
2022/07/10 11:06:09;;;;;;;2.30;1.42;;;;;;;21.17;50.52;93662.00;6116197;23;20007;-94
2022/07/10 11:08:54;;;;;;;1.40;1.30;;;;;;;21.16;50.22;93653.03;6175930;22;20001;-94
2022/07/10 11:11:32;;;;;;;1.42;1.20;;;;;;;21.17;50.49;93648.28;6233646;22;20027;-90
2022/07/10 11:14:02;;;;;;;2.63;1.55;;;;;;;21.19;50.18;93659.50;6238621;22;20036;-92
2022/07/10 11:16:32;;;;;;;3.78;1.30;;;;;;;21.18;50.12;93661.50;6175077;23;20020;-92
2022/07/10 11:19:25;;;;;;;1.25;1.10;;;;;;;21.20;50.43;93661.00;6101442;23;20138;-93
2022/07/10 11:22:00;;;;;;;1.13;1.02;;;;;;;21.19;50.13;93665.00;6229752;23;20003;-92
2022/07/10 11:25:01;;;;;;;1.30;1.20;;;;;;;21.17;49.98;93662.00;6240539;23;20007;-91
2022/07/10 11:27:57;;;;;;;1.27;1.10;;;;;;;21.18;50.19;93650.50;6238006;22;20005;-94
2022/07/10 11:30:23;;;;;;;1.38;1.25;;;;;;;21.20;50.05;93655.50;6239636;23;20029;-94
2022/07/10 11:32:55;;;;;;;1.60;1.33;;;;;;;21.20;50.13;93663.75;6171437;23;20004;-90
2022/07/10 11:36:06;;;;;;;1.63;1.40;;;;;;;21.22;50.10;93657.72;6176085;23;20012;-92
2022/07/10 11:38:42;;;;;;;1.52;1.17;;;;;;;21.20;50.18;93666.50;6113874;23;20006;-91
2022/07/10 11:41:45;;;;;;;1.73;1.30;;;;;;;21.18;50.29;93664.25;6103472;22;20053;-91
2022/07/10 11:44:20;;;;;;;1.20;1.02;;;;;;;21.19;50.14;93657.47;6252917;22;20010;-93
2022/07/10 11:47:02;;;;;;;1.40;1.20;;;;;;;21.20;50.12;93659.00;6203866;22;20080;-93
2022/07/10 11:49:28;;;;;;;1.73;1.40;;;;;;;21.23;49.93;93656.44;6212849;23;20068;-93
2022/07/10 11:51:56;;;;;;;1.50;1.15;;;;;;;21.22;49.98;93661.19;6139877;23;20109;-92
2022/07/10 11:54:26;;;;;;;1.63;1.30;;;;;;;21.22;50.14;93650.19;6143155;23;20016;-93
2022/07/10 11:57:10;;;;;;;1.40;1.27;;;;;;;21.20;50.15;93647.25;6124738;23;20065;-93
2022/07/10 11:59:55;;;;;;;1.10;1.00;;;;;;;21.26;49.90;93658.16;6167158;22;20033;-93
2022/07/10 12:02:26;;;;;;;1.38;1.25;;;;;;;21.22;50.05;93650.19;6188597;22;20021;-93
2022/07/10 12:07:22;;;;;;;1.45;1.30;;;;;;;21.23;50.13;93665.44;6246373;22;20030;-93
2022/07/10 12:09:54;;;;;;;1.38;1.20;;;;;;;21.24;50.25;93685.41;6065045;23;20011;-91
2022/07/10 12:12:24;;;;;;;1.10;0.98;;;;;;;21.24;49.86;93672.41;6160553;22;20004;-92
2022/07/10 12:14:50;;;;;;;1.67;1.38;;;;;;;21.24;50.06;93666.91;6117662;23;20014;-92
2022/07/10 12:17:39;;;;;;;1.42;1.30;;;;;;;21.24;49.97;93677.16;6141462;23;20044;-93